Ottertail, Minnesota
Current Conditions -  °F | °C
As of 3:35 PM on Thursday 23 Oct 2014 (Local Time) from KADC Reporting Station
Clear Clear  
Wind Chill: 66°   Ceiling: Unl
Heat Index: 66°   Visibility: 10mi
Dew Point: 39°   Wind: 9mph
Humidity: 37%   Direction: 220°SW
Pressure: 29.9"   Gusts: NA
Location:  46.43°N, 95.56°W
Report Text: KADC 232035Z AUTO 22008KT 10SM CLR 19/04 A2990 RMK AO2 PWINO
Loading
Personal Weather Stations






























Interactive Weather Map New forecast layout! Learn more

10-Day Weather Forecast

Advertisements
Track Severe Weather on mobile